Shchel'yayur, Russia
Current Conditions -  °F | °C
As of 10:00 PM on Friday 28 Nov 2014 (Local Time) from UUYY Reporting Station
Snow Showers Snow Showers  
Wind Chill: 28°   Ceiling: 2000
Heat Index: 32°   Visibility: 5mi
Dew Point: 28°   Wind: 4mph
Humidity: 87%   Direction: 270°W
Pressure: 30.45"   Gusts: 11mph
Location:  65.18°N, 53.27°E
Report Text: UUYY 281900Z 27002G05MPS 8000 -SHSN SCT009 BKN020CB OVC066M00/M02 Q1031 TEMPO 2000 SHSN BR 01490341 RMK QFE764/1018
Loading
Personal Weather Stations






























Interactive Weather Map New forecast layout! Learn more

10-Day Weather Forecast

Advertisements
Track Severe Weather on mobile